Time;durP1;ratioP1;P1;durP2;ratioP2;P2;SDS_P1;SDS_P2;PMS_P1;PMS_P2;Temp;Humidity;BMP_temperature;BMP_pressure;BME280_temperature;BME280_humidity;BME280_pressure;Samples;Min_cycle;Max_cycle;Signal;HPM_P1;HPM_P2
2021/10/08 00:00:28;;;;;;;9.00;7.80;;;9.00;99.90;;;;;;5132551;28;20183;-82
2021/10/08 00:02:55;;;;;;;11.43;7.83;;;9.00;99.90;;;;;;5131485;28;20255;-83
2021/10/08 00:05:21;;;;;;;11.03;8.40;;;9.00;99.90;;;;;;5120145;28;20188;-83
2021/10/08 00:07:47;;;;;;;10.63;8.47;;;8.90;99.90;;;;;;5120515;28;20178;-83
2021/10/08 00:10:13;;;;;;;11.13;8.07;;;8.90;99.90;;;;;;5120426;28;20197;-83
2021/10/08 00:12:38;;;;;;;13.43;8.63;;;8.90;99.90;;;;;;5120541;28;20176;-83
2021/10/08 00:15:05;;;;;;;10.97;7.40;;;8.90;99.90;;;;;;5119031;28;20179;-83
2021/10/08 00:17:31;;;;;;;14.03;8.17;;;8.90;99.90;;;;;;5121237;28;20180;-83
2021/10/08 00:19:57;;;;;;;10.83;9.00;;;8.90;99.90;;;;;;5121038;28;20233;-83
2021/10/08 00:22:22;;;;;;;9.17;8.13;;;8.90;99.90;;;;;;5119838;28;20176;-83
2021/10/08 00:24:48;;;;;;;11.23;8.50;;;8.90;99.90;;;;;;5123301;28;20199;-83
2021/10/08 00:27:14;;;;;;;9.97;8.50;;;8.90;99.90;;;;;;5122627;28;20320;-83
2021/10/08 00:29:39;;;;;;;9.30;8.30;;;8.90;99.90;;;;;;5127346;28;20190;-84
2021/10/08 00:32:05;;;;;;;9.43;7.67;;;8.90;99.90;;;;;;5119676;28;20168;-83
2021/10/08 00:34:31;;;;;;;9.70;8.03;;;8.90;99.90;;;;;;5119845;28;20207;-83
2021/10/08 00:36:57;;;;;;;10.43;8.27;;;8.90;99.90;;;;;;5120215;28;20186;-83
2021/10/08 00:39:24;;;;;;;14.43;8.20;;;8.90;99.90;;;;;;5122514;28;20202;-83
2021/10/08 00:41:50;;;;;;;12.10;8.03;;;8.90;99.90;;;;;;5122459;28;20187;-83
2021/10/08 00:44:16;;;;;;;10.40;8.00;;;8.90;99.90;;;;;;5122453;28;20200;-83
2021/10/08 00:46:44;;;;;;;9.17;7.90;;;8.90;99.90;;;;;;5122420;28;20181;-83
2021/10/08 00:49:10;;;;;;;11.13;8.03;;;8.90;99.90;;;;;;5123112;28;20195;-84
2021/10/08 00:51:36;;;;;;;12.70;7.97;;;8.90;99.90;;;;;;5122406;28;20265;-83
2021/10/08 00:54:01;;;;;;;10.73;8.47;;;8.90;99.90;;;;;;5123565;28;20197;-83
2021/10/08 00:56:28;;;;;;;12.60;8.93;;;8.90;99.90;;;;;;5122274;28;20178;-83
2021/10/08 00:58:55;;;;;;;14.10;9.50;;;9.00;99.90;;;;;;5122681;28;20563;-83
2021/10/08 01:01:20;;;;;;;13.13;8.40;;;9.00;99.90;;;;;;5123629;28;20693;-84
2021/10/08 01:03:48;;;;;;;15.00;9.73;;;9.00;99.90;;;;;;5121715;28;20209;-83
2021/10/08 01:06:15;;;;;;;14.10;10.13;;;9.00;99.90;;;;;;5123086;28;20183;-83
2021/10/08 01:08:40;;;;;;;12.60;10.03;;;9.00;99.90;;;;;;5123060;28;20221;-83
2021/10/08 01:11:06;;;;;;;14.83;10.57;;;9.00;99.90;;;;;;5124340;28;20629;-83
2021/10/08 01:13:32;;;;;;;13.57;10.10;;;9.00;99.90;;;;;;5121982;28;20228;-83
2021/10/08 01:15:58;;;;;;;12.53;9.67;;;8.90;99.90;;;;;;5123509;28;20179;-83
2021/10/08 01:18:25;;;;;;;13.80;10.10;;;8.90;99.90;;;;;;5122975;28;20593;-83
2021/10/08 01:20:51;;;;;;;15.63;9.83;;;8.90;99.90;;;;;;5122068;28;20713;-83
2021/10/08 01:23:17;;;;;;;11.70;9.77;;;8.80;99.90;;;;;;5123999;28;20660;-83
2021/10/08 01:25:43;;;;;;;11.97;9.90;;;8.70;99.90;;;;;;5122887;28;20210;-83
2021/10/08 01:28:08;;;;;;;15.53;10.93;;;8.70;99.90;;;;;;5123924;28;20191;-83
2021/10/08 01:30:34;;;;;;;12.13;10.63;;;8.80;99.90;;;;;;5122775;28;20249;-83
2021/10/08 01:33:01;;;;;;;17.33;10.80;;;8.80;99.90;;;;;;5122252;28;20179;-83
2021/10/08 01:35:27;;;;;;;15.27;11.67;;;8.80;99.90;;;;;;5121777;28;20214;-83
2021/10/08 01:37:53;;;;;;;15.73;11.13;;;8.70;99.90;;;;;;5122901;27;20186;-83
2021/10/08 01:40:20;;;;;;;16.37;11.80;;;8.80;99.90;;;;;;5121795;28;20201;-83
2021/10/08 01:42:45;;;;;;;15.67;11.43;;;8.80;99.90;;;;;;5121833;28;20589;-83
2021/10/08 01:45:13;;;;;;;17.03;11.77;;;8.80;99.90;;;;;;5120940;28;20750;-83
2021/10/08 01:47:39;;;;;;;14.87;11.10;;;8.80;99.90;;;;;;5121008;28;20184;-84
2021/10/08 01:50:06;;;;;;;18.20;14.00;;;8.70;99.90;;;;;;5122135;28;20174;-83
2021/10/08 01:52:32;;;;;;;17.77;11.90;;;8.80;99.90;;;;;;5126655;28;20187;-83
2021/10/08 01:54:57;;;;;;;17.97;11.63;;;8.80;99.90;;;;;;5132127;28;20205;-83
2021/10/08 01:57:25;;;;;;;19.30;12.30;;;8.80;99.90;;;;;;5134139;28;20197;-82
2021/10/08 01:59:52;;;;;;;20.30;12.60;;;8.80;99.90;;;;;;5133837;28;20229;-83
2021/10/08 02:02:17;;;;;;;16.43;11.70;;;8.80;99.90;;;;;;5135354;28;20566;-83
2021/10/08 02:04:43;;;;;;;17.13;12.40;;;8.80;99.90;;;;;;5135445;28;20221;-82
2021/10/08 02:07:09;;;;;;;15.97;11.50;;;8.80;99.90;;;;;;5129674;28;20554;-83
2021/10/08 02:09:35;;;;;;;18.80;12.13;;;8.90;99.90;;;;;;5121015;28;20249;-83
2021/10/08 02:12:00;;;;;;;16.07;12.13;;;8.80;99.90;;;;;;5119233;28;20186;-83
2021/10/08 02:14:26;;;;;;;18.90;11.40;;;8.80;99.90;;;;;;5119712;28;20214;-83
2021/10/08 02:16:52;;;;;;;18.90;12.40;;;8.70;99.90;;;;;;5118798;28;20663;-83
2021/10/08 02:19:17;;;;;;;19.40;12.20;;;8.70;99.90;;;;;;5116656;28;20207;-82
2021/10/08 02:21:43;;;;;;;16.33;12.00;;;8.70;99.90;;;;;;5116995;28;20217;-82
2021/10/08 02:24:09;;;;;;;16.37;12.60;;;8.70;99.90;;;;;;5121295;28;20202;-83
2021/10/08 02:26:34;;;;;;;17.77;12.60;;;8.70;99.90;;;;;;5121612;27;20172;-83
2021/10/08 02:29:00;;;;;;;19.67;12.40;;;8.70;99.90;;;;;;5119719;28;20231;-83
2021/10/08 02:31:26;;;;;;;17.17;12.60;;;8.70;99.90;;;;;;5121817;28;20184;-83
2021/10/08 02:33:51;;;;;;;15.03;11.17;;;8.70;99.90;;;;;;5119900;28;20191;-83
2021/10/08 02:36:17;;;;;;;16.37;12.20;;;8.70;99.90;;;;;;5120133;28;20178;-84
2021/10/08 02:38:43;;;;;;;16.10;12.57;;;8.70;99.90;;;;;;5119693;28;20207;-83
2021/10/08 02:41:09;;;;;;;16.37;11.63;;;8.70;99.90;;;;;;5119858;28;20232;-83
2021/10/08 02:43:35;;;;;;;16.43;12.40;;;8.70;99.90;;;;;;5120290;28;20189;-83
2021/10/08 02:46:01;;;;;;;17.80;11.80;;;8.70;99.90;;;;;;5120550;28;20652;-83
2021/10/08 02:48:27;;;;;;;16.00;11.90;;;8.70;99.90;;;;;;5120640;28;20563;-83
2021/10/08 02:50:53;;;;;;;16.20;10.57;;;8.70;99.90;;;;;;5124141;28;20524;-83
2021/10/08 02:53:19;;;;;;;16.93;11.80;;;8.70;99.90;;;;;;5123554;28;20261;-84
2021/10/08 02:55:44;;;;;;;16.60;11.63;;;8.70;99.90;;;;;;5127204;28;20177;-82
2021/10/08 02:58:10;;;;;;;17.70;12.43;;;8.70;99.90;;;;;;5120911;28;20197;-83
2021/10/08 03:00:36;;;;;;;18.67;13.27;;;8.70;99.90;;;;;;5119446;28;20178;-83
2021/10/08 03:03:01;;;;;;;20.90;13.03;;;8.70;99.90;;;;;;5119051;28;20221;-83
2021/10/08 03:05:27;;;;;;;15.93;12.67;;;8.60;99.90;;;;;;5120361;28;20626;-83
2021/10/08 03:07:53;;;;;;;19.63;13.20;;;8.60;99.90;;;;;;5118884;28;20829;-83
2021/10/08 03:10:19;;;;;;;20.03;13.53;;;8.60;99.90;;;;;;5119270;28;20189;-83
2021/10/08 03:12:49;;;;;;;19.57;12.83;;;8.70;99.90;;;;;;5119049;28;20177;-83
2021/10/08 03:15:15;;;;;;;17.13;12.27;;;8.70;99.90;;;;;;5120969;28;20653;-83
2021/10/08 03:17:41;;;;;;;20.10;12.57;;;8.60;99.90;;;;;;5118956;28;20190;-83
2021/10/08 03:20:09;;;;;;;22.13;12.90;;;8.60;99.90;;;;;;5120893;28;20179;-83
2021/10/08 03:22:35;;;;;;;20.10;12.50;;;8.60;99.90;;;;;;5118559;28;20175;-83
2021/10/08 03:25:01;;;;;;;20.77;13.07;;;8.60;99.90;;;;;;5119030;28;20671;-83
2021/10/08 03:27:27;;;;;;;20.00;13.10;;;8.60;99.90;;;;;;5120525;28;20650;-83
2021/10/08 03:29:53;;;;;;;18.07;13.27;;;8.70;99.90;;;;;;5118868;28;20208;-83
2021/10/08 03:32:19;;;;;;;18.83;13.13;;;8.70;99.90;;;;;;5119459;28;20171;-83
2021/10/08 03:34:44;;;;;;;18.53;13.27;;;8.70;99.90;;;;;;5118796;28;20213;-83
2021/10/08 03:37:16;;;;;;;21.03;13.20;;;8.70;99.90;;;;;;5119026;28;20312;-83
2021/10/08 03:39:45;;;;;;;17.40;13.27;;;8.70;99.90;;;;;;5120307;28;20205;-83
2021/10/08 03:42:16;;;;;;;19.57;13.20;;;8.60;99.90;;;;;;5118604;28;20555;-83
2021/10/08 03:44:45;;;;;;;17.57;12.93;;;8.60;99.90;;;;;;5118771;28;20214;-83
2021/10/08 03:47:15;;;;;;;19.27;12.50;;;8.60;99.90;;;;;;5120655;28;20196;-84
2021/10/08 03:49:42;;;;;;;17.60;12.97;;;8.70;99.90;;;;;;5119365;28;20194;-83
2021/10/08 03:52:08;;;;;;;16.70;12.23;;;8.70;99.90;;;;;;5119038;28;20179;-83
2021/10/08 03:54:33;;;;;;;19.13;12.60;;;8.60;99.90;;;;;;5119076;28;20271;-83
2021/10/08 03:56:59;;;;;;;23.33;13.30;;;8.60;99.90;;;;;;5119610;28;20193;-85
2021/10/08 03:59:25;;;;;;;19.17;14.10;;;8.60;99.90;;;;;;5120780;28;20197;-83
2021/10/08 04:01:51;;;;;;;18.53;13.03;;;8.60;99.90;;;;;;5119238;28;20196;-83
2021/10/08 04:04:16;;;;;;;19.13;13.50;;;8.60;99.90;;;;;;5121381;28;20309;-83
2021/10/08 04:06:42;;;;;;;20.00;15.00;;;8.70;99.90;;;;;;5122211;28;20207;-83
2021/10/08 04:09:08;;;;;;;24.00;15.40;;;8.80;99.90;;;;;;5122652;28;20199;-83
2021/10/08 04:11:35;;;;;;;22.40;14.63;;;8.80;99.90;;;;;;5119084;28;20539;-83
2021/10/08 04:14:01;;;;;;;23.00;14.73;;;8.80;99.90;;;;;;5119899;28;20272;-83
2021/10/08 04:16:26;;;;;;;24.73;15.70;;;8.80;99.90;;;;;;5119850;28;20218;-83
2021/10/08 04:18:52;;;;;;;24.57;15.93;;;8.80;99.90;;;;;;5120066;28;20197;-83
2021/10/08 04:21:18;;;;;;;24.43;15.57;;;8.80;99.90;;;;;;5120914;28;20170;-83
2021/10/08 04:23:43;;;;;;;25.27;15.63;;;8.80;99.90;;;;;;5118043;28;20177;-83
2021/10/08 04:26:09;;;;;;;33.63;16.57;;;8.80;99.90;;;;;;5120296;28;20169;-83
2021/10/08 10:33:48;;;;;;;19.57;15.03;;;12.90;99.90;;;;;;5162564;27;20621;-82
2021/10/08 10:36:22;;;;;;;22.13;16.07;;;13.00;99.90;;;;;;5162817;27;20170;-82
2021/10/08 10:38:48;;;;;;;23.57;15.00;;;12.90;99.90;;;;;;5151270;27;20270;-82
2021/10/08 10:41:17;;;;;;;19.43;15.53;;;12.90;99.90;;;;;;5162713;27;20189;-83
2021/10/08 10:43:46;;;;;;;24.73;15.43;;;12.90;99.90;;;;;;5162871;27;20166;-82
2021/10/08 10:51:55;;;;;;;20.73;14.83;;;13.00;99.90;;;;;;5162434;27;20194;-83
2021/10/08 10:54:49;;;;;;;20.37;14.80;;;12.80;99.90;;;;;;5161946;27;20184;-82
2021/10/08 10:57:18;;;;;;;23.80;15.80;;;13.00;99.90;;;;;;5161564;27;20186;-83
2021/10/08 10:59:44;;;;;;;21.33;15.60;;;13.10;99.90;;;;;;5159425;27;20221;-82
2021/10/08 11:02:11;;;;;;;20.33;16.30;;;13.10;99.90;;;;;;5161946;27;20204;-82
2021/10/08 11:04:39;;;;;;;21.00;13.77;;;13.10;99.90;;;;;;5161425;27;20212;-83
2021/10/08 11:07:12;;;;;;;17.80;13.37;;;13.20;99.90;;;;;;5161251;27;20170;-83
2021/10/08 11:09:39;;;;;;;18.03;13.57;;;13.10;99.90;;;;;;5161080;27;20197;-82
2021/10/08 11:12:28;;;;;;;18.50;12.10;;;13.30;99.90;;;;;;5160336;27;20280;-82
2021/10/08 11:15:23;;;;;;;15.13;11.97;;;13.50;99.90;;;;;;5162013;27;20170;-82
2021/10/08 11:17:59;;;;;;;15.60;11.70;;;13.70;99.90;;;;;;5139285;27;20316;-82
2021/10/08 11:20:49;;;;;;;18.47;12.60;;;13.90;99.90;;;;;;5160180;27;20185;-82
2021/10/08 11:23:23;;;;;;;18.40;12.20;;;14.00;99.90;;;;;;5159820;27;20170;-82
2021/10/08 11:25:59;;;;;;;16.07;11.50;;;14.00;99.90;;;;;;5159443;27;20184;-83
2021/10/08 11:28:27;;;;;;;15.43;11.23;;;14.30;99.90;;;;;;5157932;27;20697;-82
2021/10/08 11:30:53;;;;;;;15.23;12.10;;;14.80;99.90;;;;;;5159149;27;20202;-82
2021/10/08 11:33:37;;;;;;;15.43;12.27;;;15.20;99.90;;;;;;5160724;27;20221;-81
2021/10/08 11:36:12;;;;;;;18.87;12.77;;;15.40;99.90;;;;;;5162072;27;20155;-82
2021/10/08 11:38:38;;;;;;;14.03;11.37;;;15.60;99.90;;;;;;5160948;27;20210;-82
2021/10/08 11:41:17;;;;;;;16.67;12.43;;;15.20;99.90;;;;;;5159926;27;20651;-82
2021/10/08 11:43:44;;;;;;;15.07;12.77;;;15.00;99.90;;;;;;5151981;27;20186;-82
2021/10/08 11:46:38;;;;;;;15.93;11.93;;;15.00;99.90;;;;;;5144469;27;20159;-81
2021/10/08 11:49:36;;;;;;;16.00;11.73;;;16.60;99.90;;;;;;5140920;27;20187;-82
2021/10/08 11:52:02;;;;;;;14.47;11.90;;;17.10;99.90;;;;;;5140950;27;20238;-82
2021/10/08 11:54:28;;;;;;;15.63;10.97;;;16.40;99.90;;;;;;5146590;27;20189;-82
2021/10/08 11:57:00;;;;;;;14.50;11.03;;;16.10;99.90;;;;;;5150210;27;20189;-83
2021/10/08 11:59:26;;;;;;;14.10;10.47;;;16.30;99.90;;;;;;5145994;27;20206;-83
2021/10/08 12:02:15;;;;;;;9.87;8.83;;;16.00;99.90;;;;;;5145238;27;20179;-83
2021/10/08 12:05:16;;;;;;;12.13;10.23;;;15.10;99.90;;;;;;5151308;27;20178;-83
2021/10/08 12:07:54;;;;;;;10.73;9.57;;;14.90;99.90;;;;;;5052732;28;20185;-83
2021/10/08 12:10:19;;;;;;;12.83;9.97;;;14.90;99.90;;;;;;5136642;27;20197;-83
2021/10/08 12:12:59;;;;;;;14.43;9.23;;;16.50;99.90;;;;;;5146388;27;20242;-83
2021/10/08 12:15:25;;;;;;;9.20;8.13;;;17.50;99.90;;;;;;5144531;27;20194;-83
2021/10/08 12:17:54;;;;;;;9.73;8.73;;;17.20;99.90;;;;;;5143618;27;20182;-83
2021/10/08 12:20:24;;;;;;;8.93;8.03;;;18.10;99.90;;;;;;5144782;27;20187;-83
2021/10/08 12:23:11;;;;;;;11.37;8.27;;;18.70;99.90;;;;;;5146035;27;20202;-83
2021/10/08 12:25:37;;;;;;;11.70;8.83;;;18.30;99.90;;;;;;5148103;27;20266;-83
2021/10/08 12:28:03;;;;;;;7.83;7.03;;;17.60;99.90;;;;;;5148030;27;20239;-84
2021/10/08 12:30:28;;;;;;;8.77;6.83;;;17.10;99.90;;;;;;5147016;27;20173;-84
2021/10/08 12:33:03;;;;;;;10.33;7.73;;;16.80;99.90;;;;;;5147983;27;20222;-83
2021/10/08 12:35:29;;;;;;;8.80;7.77;;;16.70;99.90;;;;;;5143977;27;20206;-84
2021/10/08 12:38:03;;;;;;;8.00;7.00;;;16.70;99.90;;;;;;5144208;27;20176;-84
2021/10/08 12:40:39;;;;;;;8.53;7.63;;;16.20;99.90;;;;;;5142720;27;20182;-83
2021/10/08 12:43:18;;;;;;;11.83;8.07;;;16.10;99.90;;;;;;5141361;27;20167;-82
2021/10/08 12:45:46;;;;;;;9.27;7.10;;;16.60;99.90;;;;;;5143489;27;20195;-83
2021/10/08 12:48:17;;;;;;;7.60;6.50;;;17.20;99.90;;;;;;5142564;27;20206;-83
2021/10/08 12:50:43;;;;;;;8.97;7.03;;;17.10;99.90;;;;;;5142097;27;20234;-82
2021/10/08 12:53:19;;;;;;;7.70;6.90;;;18.00;99.90;;;;;;5145104;27;20200;-82
2021/10/08 12:55:46;;;;;;;8.00;6.90;;;19.60;99.90;;;;;;5144801;27;20163;-82
2021/10/08 12:58:20;;;;;;;7.80;7.00;;;18.80;99.90;;;;;;5146459;27;20184;-82
2021/10/08 13:00:51;;;;;;;7.77;6.87;;;18.00;99.90;;;;;;5145284;27;20211;-82
2021/10/08 13:03:37;;;;;;;7.60;6.80;;;19.00;99.90;;;;;;5144836;27;20199;-82
2021/10/08 13:06:13;;;;;;;7.70;6.77;;;19.70;99.90;;;;;;5145009;27;20181;-82
2021/10/08 13:08:41;;;;;;;9.17;6.70;;;19.00;99.90;;;;;;5144238;27;20199;-82
2021/10/08 13:11:09;;;;;;;8.43;7.23;;;19.80;99.90;;;;;;5141551;27;20270;-82
2021/10/08 13:13:36;;;;;;;8.57;7.53;;;19.50;99.90;;;;;;5137809;27;20677;-82
2021/10/08 13:16:03;;;;;;;7.57;6.70;;;19.60;99.90;;;;;;5139473;27;20165;-82
2021/10/08 13:18:45;;;;;;;8.13;6.57;;;20.00;99.90;;;;;;5121497;28;20190;-82
2021/10/08 13:21:15;;;;;;;7.47;6.50;;;20.90;99.90;;;;;;5123039;28;20165;-83
2021/10/08 13:23:41;;;;;;;9.07;7.60;;;20.90;99.90;;;;;;5120470;28;20163;-82
2021/10/08 13:26:07;;;;;;;7.47;6.67;;;19.40;99.90;;;;;;5121294;28;20318;-83
2021/10/08 13:28:33;;;;;;;10.93;6.93;;;18.10;99.90;;;;;;5120631;28;20197;-82
2021/10/08 13:30:58;;;;;;;8.10;7.30;;;17.80;99.90;;;;;;5120583;28;20212;-82
2021/10/08 13:33:25;;;;;;;8.90;7.13;;;17.70;99.90;;;;;;5121827;28;20231;-82
2021/10/08 13:36:02;;;;;;;9.07;7.13;;;17.50;99.90;;;;;;5120605;28;20231;-82
2021/10/08 13:38:28;;;;;;;8.43;7.10;;;18.50;99.90;;;;;;5120096;28;20211;-82
2021/10/08 13:40:56;;;;;;;7.00;6.30;;;20.20;99.90;;;;;;5121212;28;20528;-82
2021/10/08 13:43:23;;;;;;;8.40;7.40;;;20.80;99.90;;;;;;5120585;28;20657;-82
2021/10/08 13:45:48;;;;;;;8.07;6.63;;;20.60;99.90;;;;;;5118364;28;20179;-83
2021/10/08 13:48:14;;;;;;;7.20;6.50;;;20.00;99.90;;;;;;5116124;28;20694;-83
2021/10/08 13:50:40;;;;;;;8.73;7.43;;;18.30;99.90;;;;;;5116158;28;20181;-83
2021/10/08 13:53:07;;;;;;;10.43;7.10;;;17.40;99.90;;;;;;5118119;28;20201;-83
2021/10/08 13:55:36;;;;;;;9.53;7.17;;;16.60;99.90;;;;;;5117476;28;20248;-83
2021/10/08 13:58:02;;;;;;;7.97;7.00;;;16.40;99.90;;;;;;5117276;28;20291;-83
2021/10/08 14:00:29;;;;;;;9.13;7.57;;;16.30;99.90;;;;;;5116377;28;20225;-83
2021/10/08 14:03:04;;;;;;;8.93;7.20;;;15.90;99.90;;;;;;5115487;28;20279;-83
2021/10/08 14:10:48;;;;;;;9.40;8.40;;;15.20;99.90;;;;;;5118348;28;20160;-83
2021/10/08 14:13:14;;;;;;;8.37;7.53;;;14.90;99.90;;;;;;5117199;28;20204;-82
2021/10/08 14:15:39;;;;;;;11.90;8.03;;;14.70;99.90;;;;;;5117053;28;20172;-82
2021/10/08 14:18:05;;;;;;;11.80;8.47;;;14.70;99.90;;;;;;5116449;28;20192;-82
2021/10/08 14:20:31;;;;;;;10.53;8.10;;;14.70;99.90;;;;;;5117801;28;20178;-83
2021/10/08 14:22:57;;;;;;;12.00;8.97;;;14.60;99.90;;;;;;5117646;28;20655;-83
2021/10/08 14:25:23;;;;;;;12.50;7.70;;;14.60;99.90;;;;;;5117034;28;20175;-83
2021/10/08 14:27:48;;;;;;;12.17;9.20;;;14.40;99.90;;;;;;5117562;28;20228;-83
2021/10/08 14:30:16;;;;;;;12.07;9.10;;;14.10;99.90;;;;;;5118727;28;20179;-83
2021/10/08 14:32:43;;;;;;;10.23;8.63;;;13.90;99.90;;;;;;5117947;28;20211;-82
2021/10/08 14:35:09;;;;;;;13.73;9.60;;;13.70;99.90;;;;;;5116915;28;20179;-82
2021/10/08 14:37:35;;;;;;;11.10;8.07;;;13.60;99.90;;;;;;5117092;28;20175;-82
2021/10/08 14:40:02;;;;;;;10.20;8.00;;;13.50;99.90;;;;;;5119608;28;20203;-82
2021/10/08 14:42:28;;;;;;;12.63;8.57;;;13.40;99.90;;;;;;5119970;28;20187;-82
2021/10/08 14:44:54;;;;;;;10.27;8.27;;;13.30;99.90;;;;;;5116689;28;20171;-82
2021/10/08 14:47:20;;;;;;;10.97;8.20;;;13.20;99.90;;;;;;5117787;28;20187;-82
2021/10/08 14:49:46;;;;;;;11.53;8.33;;;13.10;99.90;;;;;;5119544;28;20195;-82
2021/10/08 14:52:13;;;;;;;11.30;8.47;;;13.00;99.90;;;;;;5121805;28;20199;-82
2021/10/08 14:54:52;;;;;;;12.90;9.30;;;12.90;99.90;;;;;;5118011;28;20231;-82
2021/10/08 14:57:30;;;;;;;12.13;8.80;;;12.80;99.90;;;;;;5118174;28;20172;-84
2021/10/08 14:59:56;;;;;;;12.83;8.70;;;12.80;99.90;;;;;;5119993;28;20187;-79
2021/10/08 15:02:23;;;;;;;13.03;9.50;;;12.80;99.90;;;;;;5122530;28;20650;-81
2021/10/08 15:04:49;;;;;;;11.23;8.97;;;12.70;99.90;;;;;;5119757;28;20179;-81
2021/10/08 15:07:15;;;;;;;13.43;9.87;;;12.70;99.90;;;;;;5120297;28;20176;-81
2021/10/08 15:09:41;;;;;;;12.97;9.17;;;12.60;99.90;;;;;;5120718;28;20211;-82
2021/10/08 15:12:08;;;;;;;12.00;8.87;;;12.60;99.90;;;;;;5121474;28;20278;-81
2021/10/08 15:14:34;;;;;;;13.77;9.17;;;12.50;99.90;;;;;;5122883;28;20190;-81
2021/10/08 15:17:00;;;;;;;13.87;9.57;;;12.40;99.90;;;;;;5120028;28;20179;-82
2021/10/08 15:19:29;;;;;;;14.90;9.40;;;12.40;99.90;;;;;;5122162;28;20191;-81
2021/10/08 15:21:57;;;;;;;12.97;9.00;;;12.40;99.90;;;;;;5127578;27;20167;-81
2021/10/08 15:24:23;;;;;;;13.60;10.33;;;12.40;99.90;;;;;;5140540;27;20171;-81
2021/10/08 15:26:49;;;;;;;15.67;10.90;;;12.40;99.90;;;;;;5131823;27;20212;-82
2021/10/08 15:29:14;;;;;;;13.00;9.53;;;12.40;99.90;;;;;;5127825;27;20660;-82
2021/10/08 15:31:40;;;;;;;14.60;9.93;;;12.30;99.90;;;;;;5125556;28;20183;-82
2021/10/08 15:34:06;;;;;;;13.93;10.13;;;12.30;99.90;;;;;;5124814;28;20621;-82
2021/10/08 15:36:31;;;;;;;21.03;11.20;;;12.30;99.90;;;;;;5124218;28;20214;-81
2021/10/08 15:38:57;;;;;;;15.63;10.87;;;12.30;99.90;;;;;;5125454;28;20206;-81
2021/10/08 15:41:23;;;;;;;15.10;11.63;;;12.20;99.90;;;;;;5125983;28;20176;-82
2021/10/08 15:43:49;;;;;;;14.17;10.23;;;;;;;;;;5122723;28;20179;-81
2021/10/08 15:46:15;;;;;;;14.73;10.80;;;12.10;99.90;;;;;;5124267;28;20183;-81
2021/10/08 15:48:40;;;;;;;14.30;10.63;;;12.10;99.90;;;;;;5124916;28;20688;-81
2021/10/08 15:51:06;;;;;;;12.60;10.00;;;12.00;99.90;;;;;;5123695;28;20179;-81
2021/10/08 15:53:33;;;;;;;15.87;10.50;;;12.10;99.90;;;;;;5124005;28;20274;-82
2021/10/08 15:55:59;;;;;;;15.97;11.33;;;12.00;99.90;;;;;;5126358;28;20174;-81
2021/10/08 15:58:25;;;;;;;16.07;10.87;;;12.00;99.90;;;;;;5125217;28;20197;-81
2021/10/08 16:00:52;;;;;;;18.27;11.57;;;11.90;99.90;;;;;;5131948;27;20171;-81
2021/10/08 16:03:17;;;;;;;21.53;11.53;;;11.90;99.90;;;;;;5137148;27;20197;-82
2021/10/08 16:05:43;;;;;;;13.23;10.10;;;11.90;99.90;;;;;;5150920;27;20183;-81
2021/10/08 16:08:09;;;;;;;13.63;9.33;;;11.80;99.90;;;;;;5147130;27;20195;-81
2021/10/08 16:10:39;;;;;;;14.33;10.10;;;11.70;99.90;;;;;;5146460;27;20629;-81
2021/10/08 16:13:06;;;;;;;16.50;11.37;;;11.60;99.90;;;;;;5146606;27;20202;-81
2021/10/08 16:15:34;;;;;;;18.23;11.50;;;11.60;99.90;;;;;;5144226;27;20177;-81
2021/10/08 16:18:03;;;;;;;14.57;10.50;;;11.40;99.90;;;;;;5143126;27;20198;-81
2021/10/08 16:20:30;;;;;;;16.53;10.70;;;11.40;99.90;;;;;;5145554;27;20163;-81
2021/10/08 16:22:55;;;;;;;15.10;11.10;;;11.30;99.90;;;;;;5146254;27;20181;-81
2021/10/08 16:25:21;;;;;;;17.00;11.70;;;11.30;99.90;;;;;;5145189;27;20658;-81
2021/10/08 16:27:47;;;;;;;14.20;10.73;;;11.10;99.90;;;;;;5144052;27;20185;-80
2021/10/08 16:30:14;;;;;;;16.60;11.43;;;11.00;99.90;;;;;;5140677;27;20176;-81
2021/10/08 16:32:42;;;;;;;16.57;12.00;;;10.90;99.90;;;;;;5140290;27;20244;-82
2021/10/08 16:35:08;;;;;;;16.63;12.10;;;10.90;99.90;;;;;;5146118;27;20239;-81
2021/10/08 16:37:34;;;;;;;16.73;12.33;;;10.80;99.90;;;;;;5145725;27;20175;-81
2021/10/08 16:40:01;;;;;;;18.50;13.37;;;10.70;99.90;;;;;;5144692;27;20205;-81
2021/10/08 16:42:27;;;;;;;16.90;13.13;;;10.60;99.90;;;;;;5146283;27;20185;-81
2021/10/08 16:44:53;;;;;;;17.47;12.77;;;10.50;99.90;;;;;;5146797;27;20183;-81
2021/10/08 16:47:19;;;;;;;19.93;13.07;;;10.50;99.90;;;;;;5147103;27;20182;-81
2021/10/08 16:49:44;;;;;;;18.17;12.73;;;10.50;99.90;;;;;;5148275;27;20199;-80
2021/10/08 16:52:11;;;;;;;16.83;13.63;;;10.40;99.90;;;;;;5146600;27;20200;-81
2021/10/08 16:54:41;;;;;;;18.40;13.33;;;10.40;99.90;;;;;;5142287;27;20163;-81
2021/10/08 16:57:06;;;;;;;20.70;13.63;;;10.30;99.90;;;;;;5141501;27;20569;-81
2021/10/08 16:59:33;;;;;;;17.70;12.97;;;10.30;99.90;;;;;;5140242;27;20191;-81
2021/10/08 17:01:59;;;;;;;19.80;12.90;;;10.30;99.90;;;;;;5141274;27;20175;-81
2021/10/08 17:04:25;;;;;;;21.77;13.37;;;10.30;99.90;;;;;;5141451;27;20187;-81
2021/10/08 17:06:52;;;;;;;16.73;12.53;;;10.20;99.90;;;;;;5139960;27;20182;-81
2021/10/08 17:09:17;;;;;;;19.40;13.17;;;10.10;99.90;;;;;;5140496;27;20211;-81
2021/10/08 17:11:43;;;;;;;19.30;13.40;;;10.10;99.90;;;;;;5142308;27;20170;-81
2021/10/08 17:14:11;;;;;;;18.83;13.57;;;10.10;99.90;;;;;;5139259;27;20177;-81
2021/10/08 17:16:38;;;;;;;17.53;13.30;;;10.10;99.90;;;;;;5137395;27;20177;-81
2021/10/08 17:19:04;;;;;;;19.70;14.43;;;10.00;99.90;;;;;;5137914;27;20259;-81
2021/10/08 17:21:30;;;;;;;18.83;13.73;;;10.00;99.90;;;;;;5136161;27;20256;-82
2021/10/08 17:24:01;;;;;;;20.63;13.27;;;10.00;99.90;;;;;;5138299;27;20199;-82
2021/10/08 17:29:08;;;;;;;19.77;13.80;;;9.80;99.90;;;;;;5141178;27;20222;-82
2021/10/08 17:34:06;;;;;;;20.17;13.80;;;9.80;99.90;;;;;;5139970;27;20250;-84
2021/10/08 17:36:33;;;;;;;19.40;14.07;;;9.70;99.90;;;;;;5140266;27;20203;-82
2021/10/08 17:39:01;;;;;;;21.70;14.60;;;9.70;99.90;;;;;;5138494;27;20205;-82
2021/10/08 17:41:27;;;;;;;23.40;14.57;;;9.60;99.90;;;;;;5137754;27;20164;-82
2021/10/08 17:43:54;;;;;;;27.83;16.23;;;9.50;99.90;;;;;;5140256;27;20258;-82
2021/10/08 17:46:21;;;;;;;21.17;15.50;;;9.50;99.90;;;;;;5140378;27;20226;-82
2021/10/08 17:48:51;;;;;;;24.07;15.70;;;9.40;99.90;;;;;;5139776;27;20579;-82
2021/10/08 17:51:22;;;;;;;22.07;15.13;;;9.40;99.90;;;;;;5138425;27;20163;-82
2021/10/08 17:53:49;;;;;;;22.67;14.93;;;9.30;99.90;;;;;;5139084;27;20245;-81
2021/10/08 17:56:15;;;;;;;24.60;15.30;;;9.20;99.90;;;;;;5139023;27;20238;-82
2021/10/08 17:58:42;;;;;;;21.70;15.97;;;9.20;99.90;;;;;;5140640;27;20214;-82
2021/10/08 18:01:12;;;;;;;24.40;16.87;;;9.10;99.90;;;;;;5141751;27;20628;-82
2021/10/08 18:03:41;;;;;;;21.43;16.17;;;9.10;99.90;;;;;;5139671;27;20265;-82
2021/10/08 18:06:08;;;;;;;23.73;15.80;;;9.10;99.90;;;;;;5139057;27;20182;-82
2021/10/08 18:08:38;;;;;;;24.90;16.10;;;9.00;99.90;;;;;;5138960;27;20201;-82
2021/10/08 18:11:05;;;;;;;24.43;16.37;;;9.00;99.90;;;;;;5139323;27;20171;-82
2021/10/08 18:13:31;;;;;;;24.20;17.20;;;8.90;99.90;;;;;;5140790;27;20560;-82
2021/10/08 18:15:57;;;;;;;23.43;16.53;;;;;;;;;;5139061;27;20178;-82
2021/10/08 18:18:23;;;;;;;25.03;16.43;;;8.80;99.90;;;;;;5139292;27;20433;-82
2021/10/08 18:20:50;;;;;;;24.33;17.07;;;8.80;99.90;;;;;;5139400;27;20408;-81
2021/10/08 18:23:16;;;;;;;24.23;17.17;;;;;;;;;;5140449;27;20175;-82
2021/10/08 18:25:42;;;;;;;21.87;15.40;;;8.80;99.90;;;;;;5141558;27;20416;-81
2021/10/08 18:28:08;;;;;;;22.70;16.10;;;8.70;99.90;;;;;;5142329;27;20190;-82
2021/10/08 18:30:39;;;;;;;22.17;15.90;;;8.70;99.90;;;;;;5140611;27;20663;-82
2021/10/08 18:33:05;;;;;;;25.30;17.00;;;8.70;99.90;;;;;;5140944;28;20206;-82
2021/10/08 18:35:31;;;;;;;26.83;16.47;;;8.60;99.90;;;;;;5140582;28;20194;-82
2021/10/08 18:37:57;;;;;;;25.70;16.10;;;;;;;;;;5142284;27;20174;-82
2021/10/08 18:40:24;;;;;;;25.33;16.43;;;8.60;99.90;;;;;;5140681;28;20175;-81
2021/10/08 18:42:50;;;;;;;26.10;16.27;;;8.50;99.90;;;;;;5140494;27;20171;-82
2021/10/08 18:45:21;;;;;;;25.93;17.27;;;8.50;99.90;;;;;;5140265;27;20172;-81
2021/10/08 18:47:51;;;;;;;24.50;15.83;;;8.40;99.90;;;;;;5140607;27;20228;-81
2021/10/08 18:50:18;;;;;;;26.83;17.30;;;8.30;99.90;;;;;;5140320;27;20223;-81
2021/10/08 18:52:45;;;;;;;26.07;17.50;;;8.30;99.90;;;;;;5139142;27;20205;-82
2021/10/08 18:55:11;;;;;;;23.10;15.77;;;;;;;;;;5142065;27;20646;-81
2021/10/08 18:57:37;;;;;;;32.37;18.37;;;8.20;99.90;;;;;;5145633;27;20168;-82
2021/10/08 19:00:06;;;;;;;31.20;19.03;;;8.20;99.90;;;;;;5148282;27;20189;-82
2021/10/08 19:02:31;;;;;;;31.43;19.70;;;8.20;99.90;;;;;;5145442;27;20181;-83